Nearby METAR Reports

 

KPBI - West Palm Beach, Florida, USA
Distance from station: NNE 9mi, 14km
Updated: Sat, 27-Feb-2021 1:53am EST
Few Clouds
Few Clouds
 Wind from ESE
Wind: ESE 12 mph , 19 km/h
Temperature: 75°F , 24°C
Dew Point: 68°F , 20°C
Humidity: 78%
Barometer: 30.15 inHg , 1021 hPa
Clouds: Few Clouds
Visibility: 10 miles , 16 km
Cloud details: Few Clouds 2000 ft
2021/02/27 06:53 KPBI 270653Z 12010KT 10SM FEW020 24/20 A3015 RMK AO2 SLP208 T02440200
KBCT - Boca Raton, Florida, USA
Distance from station: SSE 13mi, 21km
Updated: Fri, 26-Feb-2021 10:53pm EST
NOT Current
Few Clouds
Few Clouds
 Wind from SE
Wind: SE 7 mph , 11 km/h
Temperature: 75°F , 24°C
Dew Point: 68°F , 20°C
Humidity: 78%
Barometer: 30.17 inHg , 1021.7 hPa
Clouds: Few Clouds
Visibility: 10 miles , 16 km
Cloud details: Few Clouds 2100 ft
2021/02/27 03:53 KBCT 270353Z 13006KT 10SM FEW021 24/20 A3017
 
KPMP - Pompano Beach, Florida, USA
Distance from station: S 22mi, 36km
Updated: Sat, 27-Feb-2021 1:53am EST
Few Clouds
Few Clouds
 Wind from ESE
Wind: ESE 14 mph , 22 km/h
Temperature: 75°F , 24°C
Dew Point: 70°F , 21°C
Humidity: 83%
Barometer: 30.13 inHg , 1020.3 hPa
Clouds: Few Clouds
Visibility: 10 miles , 16 km
Cloud details: Few Clouds 2100 ft
2021/02/27 06:53 KPMP 270653Z AUTO 12012KT 10SM FEW021 24/21 A3013 RMK AO2 SLP204 T02440211
KFXE - Ft Lauderd/Exec, Florida, USA
Distance from station: S 25mi, 41km
Updated: Sat, 27-Feb-2021 1:53am EST
Mostly cloudy
Mostly cloudy
 Wind from ESE
Wind: ESE 9 mph , 15 km/h
Temperature: 75°F , 24°C
Dew Point: 70°F , 21°C
Humidity: 83%
Barometer: 30.13 inHg , 1020.3 hPa
Clouds: Mostly cloudy
Visibility: 10 miles , 16 km
Cloud details: Partly cloudy 2300 ft
Mostly cloudy 3000 ft
2021/02/27 06:53 KFXE 270653Z 12008KT 10SM SCT023 BKN030 24/21 A3013 RMK AO2 SLP205 T02440211
 
KFLL - Ft Lauderd/Holly, Florida, USA
Distance from station: S 35mi, 56km
Updated: Sat, 27-Feb-2021 1:53am EST
Few Clouds
Few Clouds
 Wind from SE
Wind: SE 14 mph , 22 km/h
Temperature: 75°F , 24°C
Dew Point: 70°F , 21°C
Humidity: 83%
Barometer: 30.12 inHg , 1020 hPa
Clouds: Few Clouds
Visibility: 10 miles , 16 km
Cloud details: Few Clouds 2200 ft
Few Clouds 3200 ft
2021/02/27 06:53 KFLL 270653Z 13012KT 10SM FEW022 FEW032 24/21 A3012 RMK AO2 SLP200 T02440211
KHWO - Hollywood, Florida, USA
Distance from station: S 39mi, 64km
Updated: Sat, 27-Feb-2021 1:53am EST
Few Clouds
Few Clouds
 Wind from ESE
Wind: ESE 9 mph , 15 km/h
Temperature: 75°F , 24°C
Dew Point: 66°F , 19°C
Humidity: 74%
Barometer: 30.14 inHg , 1020.7 hPa
Clouds: Few Clouds
Visibility: 10 miles , 16 km
Cloud details: Few Clouds 2500 ft
2021/02/27 06:53 KHWO 270653Z AUTO 12008KT 10SM FEW025 24/19 A3014 RMK AO2 SLP207 T02390194
 
KSUA - Stuart/Witham, Florida, USA
Distance from station: N 43mi, 69km
Updated: Sat, 27-Feb-2021 1:55am EST
Clear
Clear
 Wind from SE
Wind: SE 5 mph , 7 km/h
Temperature: 72°F , 22°C
Dew Point: 64°F , 18°C
Humidity: 78%
Barometer: 30.17 inHg , 1021.7 hPa
Clouds: Clear
Visibility: 10 miles , 16 km
2021/02/27 06:55 KSUA 270655Z AUTO 14004KT 10SM CLR 22/18 A3017 RMK AO2
KOPF - Miami/Opa Locka, Florida, USA
Distance from station: S 46mi, 73km
Updated: Sat, 27-Feb-2021 1:53am EST
Few Clouds
Few Clouds
 Wind from ESE
Wind: ESE 9 mph , 15 km/h
Temperature: 73°F , 23°C
Dew Point: 66°F , 19°C
Humidity: 78%
Barometer: 30.14 inHg , 1020.7 hPa
Clouds: Few Clouds
Visibility: 10 miles , 16 km
Cloud details: Few Clouds 2300 ft
2021/02/27 06:53 KOPF 270653Z AUTO 12008KT 10SM FEW023 23/19 A3014 RMK AO2 SLP205 T02330194 $
 
KMIA - Miami, Florida, USA
Distance from station: S 54mi, 86km
Updated: Sat, 27-Feb-2021 1:53am EST
Partly cloudy
Partly cloudy
 Wind from ESE
Wind: ESE 10 mph , 17 km/h
Temperature: 75°F , 24°C
Dew Point: 70°F , 21°C
Humidity: 83%
Barometer: 30.13 inHg , 1020.3 hPa
Clouds: Partly cloudy
Visibility: 10 miles , 16 km
Cloud details: Partly cloudy 2000 ft
Partly cloudy 3500 ft
2021/02/27 06:53 KMIA 270653Z 11009KT 10SM SCT020 SCT035 24/21 A3013 RMK AO2 SLP202 T02390206
KOBE - Okeechobee Cty, Florida, USA
Distance from station: NW 64mi, 104km
Updated: Sat, 27-Feb-2021 1:55am EST
Clear
Clear
 Wind from calm
Wind: Calm
Temperature: 64°F , 18°C
Dew Point: 63°F , 17°C
Humidity: 94%
Barometer: 30.16 inHg , 1021.3 hPa
Clouds: Clear
Visibility: 10 miles , 16 km
2021/02/27 06:55 KOBE 270655Z AUTO 00000KT 10SM CLR 18/17 A3016 RMK AO2
 
KFPR - Fort Pierce, Florida, USA
Distance from station: NNW 66mi, 106km
Updated: Sat, 27-Feb-2021 1:53am EST
Clear
Clear
 Wind from calm
Wind: Calm
Temperature: 68°F , 20°C
Dew Point: 64°F , 18°C
Humidity: 88%
Barometer: 30.16 inHg , 1021.3 hPa
Clouds: Clear
Visibility: 10 miles , 16 km
2021/02/27 06:53 KFPR 270653Z AUTO 00000KT 10SM CLR 20/18 A3016 RMK AO2 SLP211 T02000183
KTMB - Miami/Tamiami, Florida, USA
Distance from station: SSW 66mi, 106km
Updated: Sat, 27-Feb-2021 1:53am EST
Clear
Clear
 Wind from ESE
Wind: ESE 10 mph , 17 km/h
Temperature: 75°F , 24°C
Dew Point: 68°F , 20°C
Humidity: 78%
Barometer: 30.12 inHg , 1020 hPa
Clouds: Clear
Visibility: 10 miles , 16 km
2021/02/27 06:53 KTMB 270653Z AUTO 12009KT 10SM CLR 24/20 A3012 RMK AO2 SLP199 T02440200
 
KVRB - Vero Beach, Florida, USA
Distance from station: NNW 76mi, 123km
Updated: Sat, 27-Feb-2021 1:53am EST
Clear
Clear
 Wind from SE
Wind: SE 6 mph , 9 km/h
Temperature: 70°F , 21°C
Dew Point: 68°F , 20°C
Humidity: 94%
Barometer: 30.16 inHg , 1021.3 hPa
Clouds: Clear
Visibility: 10 miles , 16 km
2021/02/27 06:53 KVRB 270653Z AUTO 13005KT 10SM CLR 21/20 A3016 RMK AO2 SLP213 T02110200
KHST - Homestead Afb, Florida, USA
Distance from station: S 77mi, 124km
Updated: Sat, 27-Feb-2021 2:01am EST
Mostly cloudy
Mostly cloudy
 Wind from ESE
Wind: ESE 7 mph , 11 km/h
Temperature: 75°F , 24°C
Barometer: 30.11 inHg , 1019.6 hPa
Clouds: Mostly cloudy
Visibility: 10 miles , 16 km
Cloud details: Mostly cloudy 1900 ft
2021/02/27 07:01 KHST 270701Z AUTO 11006KT 10SM BKN019 24/ A3011 RMK AO2 BKN V SCT SLP200 $
 
KIMM - Immokalee, Florida, USA
Distance from station: W 77mi, 124km
Updated: Sat, 27-Feb-2021 1:55am EST
Clear
Clear
 Wind from ESE
Wind: ESE 3 mph , 6 km/h
Temperature: 66°F , 19°C
Dew Point: 64°F , 18°C
Humidity: 94%
Barometer: 30.13 inHg , 1020.3 hPa
Clouds: Clear
Visibility: 10 miles , 16 km
2021/02/27 06:55 KIMM 270655Z AUTO 11003KT 10SM CLR 19/18 A3013 RMK AO2 PWINO
MYGF - Freeport Intl A, Bahamas
Distance from station: E 90mi, 145km
Updated: Sat, 27-Feb-2021 2:00am EST

 Wind from ESE
Wind: ESE 9 mph , 15 km/h
2021/02/27 07:00 MYGF 270700Z AUTO 12008KT //// R06///// // SCT017/// 23/21 A3016
 
KSEF - Sebring, Florida, USA
Distance from station: NW 95mi, 153km
Updated: Sat, 27-Feb-2021 1:55am EST
Fog, Mostly cloudy
Fog, Mostly cloudy
 Wind from ENE
Wind: ENE 3 mph , 6 km/h
Temperature: 63°F , 17°C
Dew Point: 63°F , 17°C
Humidity: 100%
Barometer: 30.16 inHg , 1021.3 hPa
Summary: Fog
Clouds: Mostly cloudy
Visibility: 1/2 mile , 0.8 km
Cloud details: Mostly cloudy 500 ft
2021/02/27 06:55 KSEF 270655Z AUTO 07003KT 1/2SM FG BKN005 17/17 A3016 RMK AO2 T01710167
KRSW - Fort Myers, Florida, USA
Distance from station: W 98mi, 158km
Updated: Sat, 27-Feb-2021 1:53am EST
Clear
Clear
 Wind from E
Wind: E 6 mph , 9 km/h
Temperature: 70°F , 21°C
Dew Point: 64°F , 18°C
Humidity: 83%
Barometer: 30.13 inHg , 1020.3 hPa
Clouds: Clear
Visibility: 10 miles , 16 km
2021/02/27 06:53 KRSW 270653Z AUTO 10005KT 10SM CLR 21/18 A3013 RMK AO2 SLP199 T02060183